Meteo Giornale » Osservazioni meteo Stati Uniti (USA) » Fort Knox
ore: 00:55 - Osservazioni Meteo Fort Knox
Lat. 37° 54' N Lon. 85° 58' W Alt. 230 metri s.l.m.
24 °C
Sereno
Temp. 24 Ore
22 °C
35 °C
Nord
0 Km/h
Dew point 22 °C
Umidità 88 %
Visibilità 10 Km
Il sole sorge alle ore 07:14
Il sole tramonta alle ore 20:13
| Data e Ora | Cielo e Fenomeni | T °C | DP °C | Um. % | Pres. hPa | Vis. km | Vento km/h | |
|---|---|---|---|---|---|---|---|---|
| Oggi h: 00:55 | Sereno | 24 | 22 | 88 | 1018 | 10 | N 0 | |
| Ieri h: 23:55 | Sereno | 25 | 23 | 88 | 1018 | 10 | N 0 | |
| Ieri h: 22:55 | Sereno | 24 | 23 | 94 | 1017 | 10 | N 0 | |
| Ieri h: 21:55 | Sereno | 24 | 23 | 94 | 1017 | 10 | N 0 | |
| Ieri h: 20:55 | Sereno | 26 | 24 | 88 | 1017 | 10 | N 0 | |
| Ieri h: 19:55 | Sereno | 31 | 23 | 62 | 1016 | 10 | N 0 | |
| Ieri h: 18:55 | Sereno | 33 | 21 | 49 | 1017 | 10 | S/SO 7.4 | |
| Ieri h: 17:55 | Sereno | 34 | 21 | 46 | 1017 | 10 | S/SO 11.1 | |
| Ieri h: 16:55 | Sereno | 35 | 20 | 41 | 1017 | 10 | S/SO 13 | |
| Ieri h: 15:55 | Sereno | 35 | 21 | 44 | 1018 | 10 | O/SO 11.1 | |
| Ieri h: 14:55 | Sereno | 34 | 21 | 46 | 1018 | 10 | O/SO 13 | |
| Ieri h: 13:55 | Poco Nuvoloso | 34 | 22 | 49 | 1019 | 10 | O 11.1 | |
| Ieri h: 12:55 | Sereno | 33 | 23 | 55 | 1019 | 10 | S/SO 18.5 | |
| Ieri h: 11:55 | Sereno | 32 | 23 | 59 | 1020 | 10 | S/SO 13 | |
| Ieri h: 10:55 | Sereno | 31 | 23 | 62 | 1020 | 10 | SO 14.8 | |
| Ieri h: 09:55 | Sereno | 27 | 23 | 78 | 1019 | 10 | SO 9.3 | |
| Ieri h: 08:55 | Sereno | 25 | 23 | 88 | 1019 | 10 | S 9.3 | |
| Ieri h: 07:55 | Sereno | 23 | 22 | 94 | 1019 | 10 | N 0 | |
| Ieri h: 06:55 | Sereno | 22 | 22 | 100 | 1018 | 10 | S 7.4 | |
| Ieri h: 05:55 | Molto Nuvoloso | 22 | 22 | 100 | 1018 | 10 | N 0 | |
| Ieri h: 04:55 | Sereno | 22 | 22 | 100 | 1018 | 10 | N 0 | |
| Ieri h: 03:55 | Sereno | 22 | 22 | 100 | 1017 | 10 | N 0 | |
| Ieri h: 02:55 | Sereno | 23 | 22 | 94 | 1017 | 10 | N 0 | |



